Weather at Gold Coast Life Saver Base

Public forecast

Using degrees Celsius for public forecast. Weather courtesy of forecast.io.

Closest aviation weather report (METAR) to Gold Coast Life Saver Base

Closest report is Gold Coast Airport, 12.3 nm (22.7 km) SE. Retrieved 2021/01/22 21:30 UTC (0 seconds ago):

YBCG 222130Z AUTO 18001KT 9999 // NCD 25/18 Q1015 RF000/////

Closest aviation forecast (TAF) to Gold Coast Life Saver Base

Closest forecast is Gold Coast Airport, 12.3 nm (22.7 km) SE. Retrieved 2021/01/22 21:00 UTC (26 minutes ago):

TAF YBCG 222007Z 2221/2318 23005KT 9999 SCT025 FM230000 04012KT 9999 FEW030 FM231600 20005KT 9999 SCT020